createdAt,value
2023-01-17T00:02:13.103Z,-1.60
2023-01-17T00:06:13.539Z,-1.50
2023-01-17T00:09:58.549Z,-1.60
2023-01-17T00:13:40.954Z,-1.60
2023-01-17T00:17:27.743Z,-1.60
2023-01-17T00:21:28.496Z,-1.60
2023-01-17T00:25:43.793Z,-1.60
2023-01-17T00:29:25.604Z,-1.70
2023-01-17T00:33:07.987Z,-1.70
2023-01-17T00:36:49.842Z,-1.70
2023-01-17T00:40:32.836Z,-1.80
2023-01-17T00:44:33.459Z,-1.90
2023-01-17T00:48:33.875Z,-1.90
2023-01-17T00:52:34.159Z,-2.00
2023-01-17T00:56:34.278Z,-2.10
2023-01-17T01:00:37.297Z,-2.20
2023-01-17T01:04:38.553Z,-2.30
2023-01-17T01:08:42.506Z,-2.30
2023-01-17T01:12:43.111Z,-2.40
2023-01-17T01:16:43.513Z,-2.40
2023-01-17T01:20:43.773Z,-2.50
2023-01-17T01:24:44.463Z,-2.60
2023-01-17T01:28:45.163Z,-2.60
2023-01-17T01:32:45.691Z,-2.70
2023-01-17T01:36:28.023Z,-2.70
2023-01-17T01:40:10.906Z,-2.70
2023-01-17T01:43:54.992Z,-2.80
2023-01-17T01:47:40.845Z,-2.80
2023-01-17T01:51:33.018Z,-2.90
2023-01-17T01:55:22.874Z,-2.90
2023-01-17T01:59:08.972Z,-3.00
2023-01-17T02:02:53.334Z,-3.00
2023-01-17T02:06:41.823Z,-3.00
2023-01-17T02:10:24.120Z,-3.10
2023-01-17T02:14:06.307Z,-3.10
2023-01-17T02:18:14.592Z,-3.10
2023-01-17T02:22:21.644Z,-3.20
2023-01-17T02:26:44.834Z,-3.30
2023-01-17T02:30:58.054Z,-3.30
2023-01-17T02:34:58.926Z,-3.30
2023-01-17T02:39:05.082Z,-3.40
2023-01-17T02:42:54.382Z,-3.40
2023-01-17T02:46:56.807Z,-3.40
2023-01-17T02:50:48.848Z,-3.50
2023-01-17T02:54:39.811Z,-3.50
2023-01-17T02:58:33.486Z,-3.50
2023-01-17T03:02:50.332Z,-3.50
2023-01-17T03:07:03.504Z,-3.50
2023-01-17T03:10:46.167Z,-3.50
2023-01-17T03:14:31.118Z,-3.50
2023-01-17T03:18:16.949Z,-3.50
2023-01-17T03:21:58.925Z,-3.50
2023-01-17T03:25:40.936Z,-3.60
2023-01-17T03:29:22.882Z,-3.60
2023-01-17T03:33:04.856Z,-3.60
2023-01-17T03:36:46.731Z,-3.60
2023-01-17T03:40:28.982Z,-3.50
2023-01-17T03:44:10.925Z,-3.50
2023-01-17T03:47:54.020Z,-3.50
2023-01-17T03:51:35.942Z,-3.50
2023-01-17T03:55:18.465Z,-3.50
2023-01-17T03:59:00.544Z,-3.50
2023-01-17T04:02:42.660Z,-3.50
2023-01-17T04:06:24.697Z,-3.50
2023-01-17T04:10:07.412Z,-3.50
2023-01-17T04:13:49.403Z,-3.50
2023-01-17T04:17:31.448Z,-3.50
2023-01-17T04:21:13.395Z,-3.50
2023-01-17T04:24:55.319Z,-3.50
2023-01-17T04:28:37.167Z,-3.60
2023-01-17T04:32:19.307Z,-3.60
2023-01-17T04:36:01.333Z,-3.60
2023-01-17T04:39:43.373Z,-3.60
2023-01-17T04:43:25.295Z,-3.60
2023-01-17T04:47:07.610Z,-3.60
2023-01-17T04:50:49.551Z,-3.70
2023-01-17T04:54:31.532Z,-3.70
2023-01-17T04:58:13.444Z,-3.70
2023-01-17T05:01:55.396Z,-3.70
2023-01-17T05:05:37.396Z,-3.70
2023-01-17T05:09:19.311Z,-3.70
2023-01-17T05:13:01.308Z,-3.80
2023-01-17T05:16:43.275Z,-3.80
2023-01-17T05:20:27.066Z,-3.80
2023-01-17T05:24:09.028Z,-3.80
2023-01-17T05:27:51.496Z,-3.80
2023-01-17T05:31:33.441Z,-3.80
2023-01-17T05:35:16.593Z,-3.80
2023-01-17T05:38:58.785Z,-3.90
2023-01-17T05:42:45.859Z,-3.90
2023-01-17T05:46:27.946Z,-3.80
2023-01-17T05:50:11.814Z,-3.70
2023-01-17T05:53:54.031Z,-3.80
2023-01-17T05:57:35.944Z,-3.80
2023-01-17T06:01:18.008Z,-3.70
2023-01-17T06:05:02.441Z,-3.70
2023-01-17T06:08:45.260Z,-3.70
2023-01-17T06:12:27.218Z,-3.70
2023-01-17T06:16:09.404Z,-3.70
2023-01-17T06:19:51.380Z,-3.70
2023-01-17T06:23:33.440Z,-3.70
2023-01-17T06:27:15.387Z,-3.60
2023-01-17T06:30:57.449Z,-3.60
2023-01-17T06:34:39.350Z,-3.70
2023-01-17T06:38:21.926Z,-3.70
2023-01-17T06:42:03.925Z,-3.70
2023-01-17T06:45:45.902Z,-3.70
2023-01-17T06:49:27.931Z,-3.70
2023-01-17T06:53:10.556Z,-3.80
2023-01-17T06:56:52.466Z,-3.70
2023-01-17T07:00:36.477Z,-3.70
2023-01-17T07:04:19.128Z,-3.70
2023-01-17T07:08:01.090Z,-3.70
2023-01-17T07:11:45.323Z,-3.70
2023-01-17T07:15:27.352Z,-3.70
2023-01-17T07:19:09.283Z,-3.80
2023-01-17T07:22:51.154Z,-3.80
2023-01-17T07:26:33.524Z,-3.80
2023-01-17T07:30:15.675Z,-3.70
2023-01-17T07:33:57.539Z,-3.70
2023-01-17T07:37:39.593Z,-3.70
2023-01-17T07:41:21.949Z,-3.70
2023-01-17T07:45:04.261Z,-3.70
2023-01-17T07:48:46.220Z,-3.70
2023-01-17T07:52:28.426Z,-3.70
2023-01-17T07:56:10.333Z,-3.70
2023-01-17T07:59:52.384Z,-3.60
2023-01-17T08:03:39.848Z,-3.60
2023-01-17T08:07:22.426Z,-3.70
2023-01-17T08:11:04.422Z,-3.70
2023-01-17T08:14:46.423Z,-3.70
2023-01-17T08:18:29.108Z,-3.70
2023-01-17T08:22:12.374Z,-3.70
2023-01-17T08:25:54.347Z,-3.70
2023-01-17T08:29:36.406Z,-3.60
2023-01-17T08:33:18.389Z,-3.60
2023-01-17T08:37:00.427Z,-3.60
2023-01-17T08:40:43.189Z,-3.60
2023-01-17T08:44:25.255Z,-3.50
2023-01-17T08:48:07.351Z,-3.50
2023-01-17T08:51:49.338Z,-3.50
2023-01-17T08:55:31.340Z,-3.40
2023-01-17T08:59:13.640Z,-3.30
2023-01-17T09:02:55.662Z,-3.30
2023-01-17T09:06:39.667Z,-3.20
2023-01-17T09:10:23.358Z,-3.20
2023-01-17T09:14:06.072Z,-3.20
2023-01-17T09:17:48.222Z,-3.10
2023-01-17T09:21:30.187Z,-3.00
2023-01-17T09:25:48.537Z,-3.00
2023-01-17T09:29:30.956Z,-2.90
2023-01-17T09:33:33.473Z,-2.80
2023-01-17T09:37:15.792Z,-2.70
2023-01-17T09:45:18.353Z,-2.50
2023-01-17T09:49:40.970Z,-2.40
2023-01-17T10:11:13.365Z,-1.90
2023-01-17T10:19:08.827Z,-1.60
2023-01-17T10:23:08.707Z,-1.50
2023-01-17T10:26:54.578Z,-1.40
2023-01-17T10:31:02.351Z,-1.30
2023-01-17T10:34:50.817Z,-1.20
2023-01-17T10:42:52.965Z,-1.00
2023-01-17T10:46:47.967Z,-0.90
2023-01-17T10:50:36.650Z,-0.70
2023-01-17T10:54:39.701Z,-0.60
2023-01-17T10:58:21.899Z,-0.50
2023-01-17T11:06:21.899Z,-0.30
2023-01-17T11:10:39.821Z,-0.30
2023-01-17T11:18:38.757Z,-0.10
2023-01-17T11:26:34.712Z,0.00
2023-01-17T11:30:47.825Z,0.00
2023-01-17T11:34:32.212Z,0.10
2023-01-17T11:56:52.331Z,0.40
2023-01-17T13:07:01.063Z,0.30
2023-01-17T13:11:12.099Z,0.30
2023-01-17T13:54:03.489Z,0.60
2023-01-17T14:01:58.314Z,0.60
2023-01-17T14:09:55.340Z,0.60
2023-01-17T14:18:49.733Z,0.50
2023-01-17T14:31:29.679Z,0.50
2023-01-17T14:35:43.243Z,0.50
2023-01-17T14:43:42.950Z,0.50
2023-01-17T15:00:30.443Z,0.40
2023-01-17T15:08:35.019Z,0.40
2023-01-17T15:12:52.494Z,0.40
2023-01-17T15:21:02.871Z,0.30
2023-01-17T15:28:49.986Z,0.30
2023-01-17T15:45:36.319Z,0.30
2023-01-17T15:53:25.371Z,0.20
2023-01-17T16:01:35.857Z,0.10
2023-01-17T16:05:49.939Z,0.10
2023-01-17T16:13:47.393Z,0.00
2023-01-17T16:21:59.189Z,-0.10
2023-01-17T16:26:01.757Z,-0.20
2023-01-17T16:29:44.903Z,-0.20
2023-01-17T16:34:13.079Z,-0.30
2023-01-17T16:38:26.538Z,-0.30
2023-01-17T16:42:12.043Z,-0.30
2023-01-17T16:45:55.651Z,-0.40
2023-01-17T16:49:37.802Z,-0.50
2023-01-17T16:53:24.488Z,-0.50
2023-01-17T16:57:06.992Z,-0.60
2023-01-17T17:00:49.193Z,-0.70
2023-01-17T17:04:31.102Z,-0.80
2023-01-17T17:08:19.589Z,-0.80
2023-01-17T17:12:10.198Z,-0.80
2023-01-17T17:15:52.337Z,-0.90
2023-01-17T17:19:34.896Z,-0.90
2023-01-17T17:23:17.170Z,-0.90
2023-01-17T17:26:59.168Z,-0.90
2023-01-17T17:30:41.177Z,-0.90
2023-01-17T17:34:25.667Z,-1.00
2023-01-17T17:38:07.683Z,-1.00
2023-01-17T17:41:49.700Z,-1.10
2023-01-17T17:45:31.685Z,-1.10
2023-01-17T17:49:13.702Z,-1.20
2023-01-17T17:52:55.643Z,-1.20
2023-01-17T17:56:39.388Z,-1.30
2023-01-17T18:00:23.272Z,-1.30
2023-01-17T18:04:07.536Z,-1.40
2023-01-17T18:07:51.043Z,-1.40
2023-01-17T18:11:33.416Z,-1.50
2023-01-17T18:15:15.485Z,-1.50
2023-01-17T18:18:58.811Z,-1.50
2023-01-17T18:22:41.122Z,-1.50
2023-01-17T18:26:25.862Z,-1.60
2023-01-17T18:30:08.446Z,-1.60
2023-01-17T18:33:50.566Z,-1.60
2023-01-17T18:37:33.253Z,-1.70
2023-01-17T18:41:27.316Z,-1.70
2023-01-17T18:45:09.548Z,-1.80
2023-01-17T18:49:22.137Z,-1.80
2023-01-17T18:52:55.800Z,-1.80
2023-01-17T18:56:38.094Z,-1.80
2023-01-17T19:00:20.605Z,-1.90
2023-01-17T19:04:04.096Z,-1.90
2023-01-17T19:07:46.283Z,-2.00
2023-01-17T19:11:28.918Z,-2.00
2023-01-17T19:15:11.136Z,-2.00
2023-01-17T19:18:54.039Z,-2.10
2023-01-17T19:22:36.114Z,-2.00
2023-01-17T19:26:20.472Z,-2.00
2023-01-17T19:30:02.487Z,-2.10
2023-01-17T19:33:47.029Z,-2.10
2023-01-17T19:37:29.032Z,-2.10
2023-01-17T19:41:23.853Z,-2.10
2023-01-17T19:45:06.411Z,-2.20
2023-01-17T19:48:48.891Z,-2.20
2023-01-17T19:52:31.508Z,-2.20
2023-01-17T19:56:25.034Z,-2.30
2023-01-17T20:00:16.702Z,-2.30
2023-01-17T20:04:00.332Z,-2.30
2023-01-17T20:07:42.297Z,-2.30
2023-01-17T20:11:25.497Z,-2.30
2023-01-17T20:15:08.168Z,-2.30
2023-01-17T20:18:50.388Z,-2.30
2023-01-17T20:22:32.437Z,-2.30
2023-01-17T20:26:16.475Z,-2.40
2023-01-17T20:30:08.061Z,-2.40
2023-01-17T20:33:56.777Z,-2.40
2023-01-17T20:37:39.038Z,-2.50
2023-01-17T20:41:23.547Z,-2.50
2023-01-17T20:45:07.243Z,-2.50
2023-01-17T20:48:54.927Z,-2.50
2023-01-17T20:52:36.884Z,-2.50
2023-01-17T20:56:19.280Z,-2.50
2023-01-17T21:00:01.301Z,-2.50
2023-01-17T21:03:43.402Z,-2.60
2023-01-17T21:07:27.914Z,-2.60
2023-01-17T21:11:12.480Z,-2.60
2023-01-17T21:14:54.474Z,-2.70
2023-01-17T21:18:36.886Z,-2.60
2023-01-17T21:22:18.965Z,-2.60
2023-01-17T21:26:01.008Z,-2.70
2023-01-17T21:29:43.117Z,-2.70
2023-01-17T21:33:26.537Z,-2.70
2023-01-17T21:37:08.474Z,-2.70
2023-01-17T21:40:50.341Z,-2.70
2023-01-17T21:44:36.370Z,-2.80
2023-01-17T21:48:18.308Z,-2.80
2023-01-17T21:52:00.296Z,-2.80
2023-01-17T21:56:00.520Z,-2.80
2023-01-17T21:59:42.504Z,-2.80
2023-01-17T22:03:24.644Z,-2.90
2023-01-17T22:07:06.626Z,-2.90
2023-01-17T22:10:48.575Z,-3.00
2023-01-17T22:14:30.540Z,-3.00
2023-01-17T22:18:14.633Z,-3.00
2023-01-17T22:21:56.783Z,-3.00
2023-01-17T22:25:38.670Z,-3.00
2023-01-17T22:29:21.772Z,-3.00
2023-01-17T22:33:03.827Z,-3.00
2023-01-17T22:36:45.818Z,-3.00
2023-01-17T22:40:27.979Z,-2.90
2023-01-17T22:44:11.362Z,-2.80
2023-01-17T22:47:53.416Z,-2.80
2023-01-17T22:51:36.090Z,-2.80
2023-01-17T22:55:18.414Z,-2.80
2023-01-17T22:59:01.366Z,-2.70
2023-01-17T23:02:43.337Z,-2.70
2023-01-17T23:06:37.702Z,-2.60
2023-01-17T23:10:38.607Z,-2.70
2023-01-17T23:14:58.315Z,-2.70
2023-01-17T23:18:58.909Z,-2.70
2023-01-17T23:22:40.821Z,-2.70
2023-01-17T23:26:22.773Z,-2.70
2023-01-17T23:30:08.317Z,-2.70
2023-01-17T23:33:50.242Z,-2.70
2023-01-17T23:37:50.821Z,-2.70
2023-01-17T23:41:50.981Z,-2.70
2023-01-17T23:45:37.354Z,-2.70
2023-01-17T23:49:19.320Z,-2.70
2023-01-17T23:53:07.214Z,-2.70
2023-01-17T23:56:49.283Z,-2.70
